KOTM/OTM METAR and TAF weather

Enter ICAO airport designator
Station Type Date Time Source
KOTM METAR 2021/01/22 05:53 UTC NOAA

KOTM 220553Z AUTO 32014KT 10SM CLR M04/M07 A3004 RMK AO2 SLP181 T10391072 10022 21039 400611039 51013


Station Type Date Time Source
KOTM Decoded METAR 2021/01/22 05:53 UTC NOAA

OTTUMWA INDUSTRIAL AIRPORT, IA, United States (KOTM) 41-06N 092-27W 256M
Jan 22, 2021 - 12:53 AM EST / 2021.01.22 0553 UTC
Wind: from the NW (320 degrees) at 16 MPH (14 KT):0
Visibility: 10 mile(s):0
Sky conditions: clear
Temperature: 25.0 F (-3.9 C)
Windchill: 12 F (-11 C):1
Dew Point: 19.0 F (-7.2 C)
Relative Humidity: 77%
Pressure (altimeter): 30.04 in. Hg (1017 hPa)
Pressure tendency: 0.04 inches (1.3 hPa) higher than three hours ago
ob: KOTM 220553Z AUTO 32014KT 10SM CLR M04/M07 A3004 RMK AO2 SLP181 T10391072 10022 21039 400611039 51013
cycle: 6

Station Type Date Time Source
KOTM TAF 2021/01/22 06:28 UTC NOAA

TAF KOTM 220525Z 2206/2306 34013KT P6SM SCT250
FM221200 35008KT P6SM SKC
FM230000 VRB03KT P6SM BKN150

Example: see airport list